sensor_id;sensor_type;location;lat;lon;timestamp;temperature;humidity
18894;DHT22;9579;49.488;8.226;2023-03-01T00:01:57;2.90;90.30
18894;DHT22;9579;49.488;8.226;2023-03-01T00:04:44;3.00;90.30
18894;DHT22;9579;49.488;8.226;2023-03-01T00:07:31;3.00;90.30
18894;DHT22;9579;49.488;8.226;2023-03-01T00:10:18;3.10;90.20
18894;DHT22;9579;49.488;8.226;2023-03-01T00:13:07;3.00;90.10
18894;DHT22;9579;49.488;8.226;2023-03-01T00:15:54;3.10;90.10
18894;DHT22;9579;49.488;8.226;2023-03-01T00:18:41;3.10;90.10
18894;DHT22;9579;49.488;8.226;2023-03-01T00:21:29;3.10;90.20
18894;DHT22;9579;49.488;8.226;2023-03-01T00:24:16;3.20;90.10
18894;DHT22;9579;49.488;8.226;2023-03-01T00:27:03;3.20;90.40
18894;DHT22;9579;49.488;8.226;2023-03-01T00:29:54;3.20;90.10
18894;DHT22;9579;49.488;8.226;2023-03-01T00:32:41;3.10;90.20
18894;DHT22;9579;49.488;8.226;2023-03-01T00:35:28;3.10;90.10
18894;DHT22;9579;49.488;8.226;2023-03-01T00:38:15;3.00;90.20
18894;DHT22;9579;49.488;8.226;2023-03-01T00:41:05;2.90;90.40
18894;DHT22;9579;49.488;8.226;2023-03-01T00:43:52;2.90;90.40
18894;DHT22;9579;49.488;8.226;2023-03-01T00:46:43;2.90;90.50
18894;DHT22;9579;49.488;8.226;2023-03-01T00:49:32;3.00;90.40
18894;DHT22;9579;49.488;8.226;2023-03-01T00:52:19;3.00;90.60
18894;DHT22;9579;49.488;8.226;2023-03-01T00:55:07;3.00;90.60
18894;DHT22;9579;49.488;8.226;2023-03-01T00:57:54;3.00;90.60
18894;DHT22;9579;49.488;8.226;2023-03-01T01:00:42;3.00;90.80
18894;DHT22;9579;49.488;8.226;2023-03-01T01:03:30;3.00;90.60
18894;DHT22;9579;49.488;8.226;2023-03-01T01:06:19;3.10;90.70
18894;DHT22;9579;49.488;8.226;2023-03-01T01:09:07;3.00;90.80
18894;DHT22;9579;49.488;8.226;2023-03-01T01:12:02;2.90;90.80
18894;DHT22;9579;49.488;8.226;2023-03-01T01:14:50;2.90;90.90
18894;DHT22;9579;49.488;8.226;2023-03-01T01:17:37;2.90;90.80
18894;DHT22;9579;49.488;8.226;2023-03-01T01:20:26;2.90;90.90
18894;DHT22;9579;49.488;8.226;2023-03-01T01:23:13;2.90;90.90
18894;DHT22;9579;49.488;8.226;2023-03-01T01:26:05;3.00;90.90
18894;DHT22;9579;49.488;8.226;2023-03-01T01:28:53;3.00;91.00
18894;DHT22;9579;49.488;8.226;2023-03-01T01:31:41;2.90;90.80
18894;DHT22;9579;49.488;8.226;2023-03-01T01:34:29;3.00;90.90
18894;DHT22;9579;49.488;8.226;2023-03-01T01:37:18;3.00;90.90
18894;DHT22;9579;49.488;8.226;2023-03-01T01:40:06;3.00;90.90
18894;DHT22;9579;49.488;8.226;2023-03-01T01:42:53;2.90;91.00
18894;DHT22;9579;49.488;8.226;2023-03-01T01:45:41;2.90;91.30
18894;DHT22;9579;49.488;8.226;2023-03-01T01:48:32;2.80;90.90
18894;DHT22;9579;49.488;8.226;2023-03-01T01:51:29;2.80;91.10
18894;DHT22;9579;49.488;8.226;2023-03-01T01:54:27;2.80;91.10
18894;DHT22;9579;49.488;8.226;2023-03-01T01:57:22;2.80;91.10
18894;DHT22;9579;49.488;8.226;2023-03-01T02:00:13;2.80;91.20
18894;DHT22;9579;49.488;8.226;2023-03-01T02:03:04;2.70;91.10
18894;DHT22;9579;49.488;8.226;2023-03-01T02:05:57;2.70;91.20
18894;DHT22;9579;49.488;8.226;2023-03-01T02:08:49;2.70;91.30
18894;DHT22;9579;49.488;8.226;2023-03-01T02:11:38;2.80;91.40
18894;DHT22;9579;49.488;8.226;2023-03-01T02:14:26;2.50;91.40
18894;DHT22;9579;49.488;8.226;2023-03-01T02:17:15;2.50;91.70
18894;DHT22;9579;49.488;8.226;2023-03-01T02:20:12;2.40;91.60
18894;DHT22;9579;49.488;8.226;2023-03-01T02:23:01;2.50;91.70
18894;DHT22;9579;49.488;8.226;2023-03-01T02:25:53;2.50;91.90
18894;DHT22;9579;49.488;8.226;2023-03-01T02:28:44;2.50;91.60
18894;DHT22;9579;49.488;8.226;2023-03-01T02:31:31;2.40;91.60
18894;DHT22;9579;49.488;8.226;2023-03-01T02:34:32;2.30;91.60
18894;DHT22;9579;49.488;8.226;2023-03-01T02:37:21;2.20;91.80
18894;DHT22;9579;49.488;8.226;2023-03-01T02:40:13;2.20;91.90
18894;DHT22;9579;49.488;8.226;2023-03-01T02:43:04;2.20;92.00
18894;DHT22;9579;49.488;8.226;2023-03-01T02:45:58;2.20;92.00
18894;DHT22;9579;49.488;8.226;2023-03-01T02:48:48;2.20;92.20
18894;DHT22;9579;49.488;8.226;2023-03-01T02:51:45;2.20;92.30
18894;DHT22;9579;49.488;8.226;2023-03-01T02:54:40;2.20;92.10
18894;DHT22;9579;49.488;8.226;2023-03-01T02:57:29;2.10;92.20
18894;DHT22;9579;49.488;8.226;2023-03-01T03:00:19;2.10;92.30
18894;DHT22;9579;49.488;8.226;2023-03-01T03:03:09;2.10;92.70
18894;DHT22;9579;49.488;8.226;2023-03-01T03:05:57;2.10;92.50
18894;DHT22;9579;49.488;8.226;2023-03-01T03:08:44;2.20;92.60
18894;DHT22;9579;49.488;8.226;2023-03-01T03:11:31;2.30;92.50
18894;DHT22;9579;49.488;8.226;2023-03-01T03:14:19;2.40;92.40
18894;DHT22;9579;49.488;8.226;2023-03-01T03:17:06;2.40;92.10
18894;DHT22;9579;49.488;8.226;2023-03-01T03:19:54;2.40;92.20
18894;DHT22;9579;49.488;8.226;2023-03-01T03:22:42;2.40;91.90
18894;DHT22;9579;49.488;8.226;2023-03-01T03:25:29;2.40;92.10
18894;DHT22;9579;49.488;8.226;2023-03-01T03:28:17;2.40;92.20
18894;DHT22;9579;49.488;8.226;2023-03-01T03:31:06;2.40;92.00
18894;DHT22;9579;49.488;8.226;2023-03-01T03:33:54;2.40;92.00
18894;DHT22;9579;49.488;8.226;2023-03-01T03:36:43;2.40;92.20
18894;DHT22;9579;49.488;8.226;2023-03-01T03:39:30;2.40;92.40
18894;DHT22;9579;49.488;8.226;2023-03-01T03:42:20;2.50;92.30
18894;DHT22;9579;49.488;8.226;2023-03-01T03:45:08;2.50;92.20
18894;DHT22;9579;49.488;8.226;2023-03-01T03:47:55;2.40;92.20
18894;DHT22;9579;49.488;8.226;2023-03-01T03:50:47;2.30;92.40
18894;DHT22;9579;49.488;8.226;2023-03-01T03:53:36;2.40;92.40
18894;DHT22;9579;49.488;8.226;2023-03-01T03:56:23;2.40;92.40
18894;DHT22;9579;49.488;8.226;2023-03-01T03:59:11;2.40;92.50
18894;DHT22;9579;49.488;8.226;2023-03-01T04:01:58;2.50;92.30
18894;DHT22;9579;49.488;8.226;2023-03-01T04:04:46;2.50;92.10
18894;DHT22;9579;49.488;8.226;2023-03-01T04:07:35;2.60;92.20
18894;DHT22;9579;49.488;8.226;2023-03-01T04:10:24;2.60;92.10
18894;DHT22;9579;49.488;8.226;2023-03-01T04:13:12;2.60;92.20
18894;DHT22;9579;49.488;8.226;2023-03-01T04:16:00;2.50;92.30
18894;DHT22;9579;49.488;8.226;2023-03-01T04:18:47;2.50;92.30
18894;DHT22;9579;49.488;8.226;2023-03-01T04:21:34;2.60;92.30
18894;DHT22;9579;49.488;8.226;2023-03-01T04:24:24;2.60;92.20
18894;DHT22;9579;49.488;8.226;2023-03-01T04:27:13;2.50;92.20
18894;DHT22;9579;49.488;8.226;2023-03-01T04:30:00;2.50;92.30
18894;DHT22;9579;49.488;8.226;2023-03-01T04:32:47;2.50;92.40
18894;DHT22;9579;49.488;8.226;2023-03-01T04:35:37;2.50;92.40
18894;DHT22;9579;49.488;8.226;2023-03-01T04:38:24;2.50;92.50
18894;DHT22;9579;49.488;8.226;2023-03-01T04:41:11;2.50;92.60
18894;DHT22;9579;49.488;8.226;2023-03-01T04:44:00;2.50;92.50
18894;DHT22;9579;49.488;8.226;2023-03-01T04:46:49;2.50;92.50
18894;DHT22;9579;49.488;8.226;2023-03-01T04:49:36;2.50;92.70
18894;DHT22;9579;49.488;8.226;2023-03-01T04:52:26;2.40;92.50
18894;DHT22;9579;49.488;8.226;2023-03-01T04:55:13;2.40;92.60
18894;DHT22;9579;49.488;8.226;2023-03-01T04:58:00;2.40;92.80
18894;DHT22;9579;49.488;8.226;2023-03-01T05:00:52;2.30;92.70
18894;DHT22;9579;49.488;8.226;2023-03-01T05:03:40;2.40;92.80
18894;DHT22;9579;49.488;8.226;2023-03-01T05:06:27;2.40;92.90
18894;DHT22;9579;49.488;8.226;2023-03-01T05:09:15;2.40;92.80
18894;DHT22;9579;49.488;8.226;2023-03-01T05:12:02;2.40;92.80
18894;DHT22;9579;49.488;8.226;2023-03-01T05:14:49;2.40;92.90
18894;DHT22;9579;49.488;8.226;2023-03-01T05:17:38;2.50;92.80
18894;DHT22;9579;49.488;8.226;2023-03-01T05:20:25;2.50;92.90
18894;DHT22;9579;49.488;8.226;2023-03-01T05:23:14;2.40;92.80
18894;DHT22;9579;49.488;8.226;2023-03-01T05:26:03;2.40;92.90
18894;DHT22;9579;49.488;8.226;2023-03-01T05:28:51;2.40;93.00
18894;DHT22;9579;49.488;8.226;2023-03-01T05:31:42;2.30;93.10
18894;DHT22;9579;49.488;8.226;2023-03-01T05:34:33;2.30;93.20
18894;DHT22;9579;49.488;8.226;2023-03-01T05:37:21;2.50;93.30
18894;DHT22;9579;49.488;8.226;2023-03-01T05:40:09;2.50;93.50
18894;DHT22;9579;49.488;8.226;2023-03-01T05:43:01;2.60;93.20
18894;DHT22;9579;49.488;8.226;2023-03-01T05:45:50;2.60;93.10
18894;DHT22;9579;49.488;8.226;2023-03-01T05:48:37;2.60;93.10
18894;DHT22;9579;49.488;8.226;2023-03-01T05:51:27;2.60;93.10
18894;DHT22;9579;49.488;8.226;2023-03-01T05:54:14;2.70;93.00
18894;DHT22;9579;49.488;8.226;2023-03-01T05:57:01;2.70;93.10
18894;DHT22;9579;49.488;8.226;2023-03-01T05:59:48;2.60;93.10
18894;DHT22;9579;49.488;8.226;2023-03-01T06:02:35;2.70;93.20
18894;DHT22;9579;49.488;8.226;2023-03-01T06:05:24;2.80;93.20
18894;DHT22;9579;49.488;8.226;2023-03-01T06:08:13;2.70;93.30
18894;DHT22;9579;49.488;8.226;2023-03-01T06:11:00;2.80;93.20
18894;DHT22;9579;49.488;8.226;2023-03-01T06:13:48;2.80;93.20
18894;DHT22;9579;49.488;8.226;2023-03-01T06:16:35;2.90;93.30
18894;DHT22;9579;49.488;8.226;2023-03-01T06:19:22;2.90;93.20
18894;DHT22;9579;49.488;8.226;2023-03-01T06:22:09;3.00;93.10
18894;DHT22;9579;49.488;8.226;2023-03-01T06:24:58;3.00;93.00
18894;DHT22;9579;49.488;8.226;2023-03-01T06:27:46;3.00;93.10
18894;DHT22;9579;49.488;8.226;2023-03-01T06:30:34;3.10;93.50
18894;DHT22;9579;49.488;8.226;2023-03-01T06:33:21;3.10;93.10
18894;DHT22;9579;49.488;8.226;2023-03-01T06:36:13;3.20;93.10
18894;DHT22;9579;49.488;8.226;2023-03-01T06:39:04;3.20;93.00
18894;DHT22;9579;49.488;8.226;2023-03-01T06:41:52;3.30;92.90
18894;DHT22;9579;49.488;8.226;2023-03-01T06:44:39;3.30;92.90
18894;DHT22;9579;49.488;8.226;2023-03-01T06:47:27;3.40;92.80
18894;DHT22;9579;49.488;8.226;2023-03-01T06:50:15;3.50;93.00
18894;DHT22;9579;49.488;8.226;2023-03-01T06:53:03;3.60;92.80
18894;DHT22;9579;49.488;8.226;2023-03-01T06:55:54;3.70;92.70
18894;DHT22;9579;49.488;8.226;2023-03-01T06:58:48;3.80;92.50
18894;DHT22;9579;49.488;8.226;2023-03-01T07:01:35;3.90;92.50
18894;DHT22;9579;49.488;8.226;2023-03-01T07:04:22;4.10;92.30
18894;DHT22;9579;49.488;8.226;2023-03-01T07:07:10;4.20;92.10
18894;DHT22;9579;49.488;8.226;2023-03-01T07:10:00;4.30;92.10
18894;DHT22;9579;49.488;8.226;2023-03-01T07:12:47;4.50;91.80
18894;DHT22;9579;49.488;8.226;2023-03-01T07:15:36;4.60;91.60
18894;DHT22;9579;49.488;8.226;2023-03-01T07:18:24;4.80;91.40
18894;DHT22;9579;49.488;8.226;2023-03-01T07:21:12;5.00;91.10
18894;DHT22;9579;49.488;8.226;2023-03-01T07:24:00;5.10;91.10
18894;DHT22;9579;49.488;8.226;2023-03-01T07:26:48;5.20;90.60
18894;DHT22;9579;49.488;8.226;2023-03-01T07:29:36;5.40;90.70
18894;DHT22;9579;49.488;8.226;2023-03-01T07:32:38;5.60;90.50
18894;DHT22;9579;49.488;8.226;2023-03-01T07:35:26;5.80;90.20
18894;DHT22;9579;49.488;8.226;2023-03-01T07:38:13;5.90;89.90
18894;DHT22;9579;49.488;8.226;2023-03-01T07:41:03;6.10;89.20
18894;DHT22;9579;49.488;8.226;2023-03-01T07:43:51;6.20;89.30
18894;DHT22;9579;49.488;8.226;2023-03-01T07:46:46;6.50;88.80
18894;DHT22;9579;49.488;8.226;2023-03-01T07:49:34;6.60;88.10
18894;DHT22;9579;49.488;8.226;2023-03-01T07:52:21;6.80;87.60
18894;DHT22;9579;49.488;8.226;2023-03-01T07:55:09;7.00;86.90
18894;DHT22;9579;49.488;8.226;2023-03-01T07:57:56;7.10;86.50
18894;DHT22;9579;49.488;8.226;2023-03-01T08:00:43;7.20;85.90
18894;DHT22;9579;49.488;8.226;2023-03-01T08:03:31;7.20;84.90
18894;DHT22;9579;49.488;8.226;2023-03-01T08:06:25;7.40;85.20
18894;DHT22;9579;49.488;8.226;2023-03-01T08:09:12;7.60;84.50
18894;DHT22;9579;49.488;8.226;2023-03-01T08:11:59;7.80;84.60
18894;DHT22;9579;49.488;8.226;2023-03-01T08:14:46;8.00;84.00
18894;DHT22;9579;49.488;8.226;2023-03-01T08:17:33;8.10;83.60
18894;DHT22;9579;49.488;8.226;2023-03-01T08:20:20;8.30;82.50
18894;DHT22;9579;49.488;8.226;2023-03-01T08:23:09;8.40;81.60
18894;DHT22;9579;49.488;8.226;2023-03-01T08:26:04;8.60;80.60
18894;DHT22;9579;49.488;8.226;2023-03-01T08:28:51;8.80;80.20
18894;DHT22;9579;49.488;8.226;2023-03-01T08:31:39;9.00;79.50
18894;DHT22;9579;49.488;8.226;2023-03-01T08:34:27;9.00;78.60
18894;DHT22;9579;49.488;8.226;2023-03-01T08:37:14;9.10;78.10
18894;DHT22;9579;49.488;8.226;2023-03-01T08:40:03;9.10;78.40
18894;DHT22;9579;49.488;8.226;2023-03-01T08:42:53;9.20;77.90
18894;DHT22;9579;49.488;8.226;2023-03-01T08:45:40;9.20;79.50
18894;DHT22;9579;49.488;8.226;2023-03-01T08:48:28;9.50;78.40
18894;DHT22;9579;49.488;8.226;2023-03-01T08:51:16;9.70;77.70
18894;DHT22;9579;49.488;8.226;2023-03-01T08:54:05;9.70;76.90
18894;DHT22;9579;49.488;8.226;2023-03-01T08:56:54;9.80;76.60
18894;DHT22;9579;49.488;8.226;2023-03-01T08:59:41;9.70;76.90
18894;DHT22;9579;49.488;8.226;2023-03-01T09:02:28;9.80;75.80
18894;DHT22;9579;49.488;8.226;2023-03-01T09:05:16;9.90;76.30
18894;DHT22;9579;49.488;8.226;2023-03-01T09:08:03;10.10;74.60
18894;DHT22;9579;49.488;8.226;2023-03-01T09:10:51;10.10;74.40
18894;DHT22;9579;49.488;8.226;2023-03-01T09:13:40;10.10;74.70
18894;DHT22;9579;49.488;8.226;2023-03-01T09:16:27;10.20;74.80
18894;DHT22;9579;49.488;8.226;2023-03-01T09:19:15;10.30;74.90
18894;DHT22;9579;49.488;8.226;2023-03-01T09:22:03;10.50;73.70
18894;DHT22;9579;49.488;8.226;2023-03-01T09:24:50;10.70;73.00
18894;DHT22;9579;49.488;8.226;2023-03-01T09:27:37;10.90;72.20
18894;DHT22;9579;49.488;8.226;2023-03-01T09:30:26;11.10;71.90
18894;DHT22;9579;49.488;8.226;2023-03-01T09:33:13;11.30;70.80
18894;DHT22;9579;49.488;8.226;2023-03-01T09:36:02;11.30;70.20
18894;DHT22;9579;49.488;8.226;2023-03-01T09:38:50;11.50;70.80
18894;DHT22;9579;49.488;8.226;2023-03-01T09:41:51;11.10;68.80
18894;DHT22;9579;49.488;8.226;2023-03-01T09:44:45;10.90;70.60
18894;DHT22;9579;49.488;8.226;2023-03-01T09:47:35;11.10;71.20
18894;DHT22;9579;49.488;8.226;2023-03-01T09:50:24;11.30;71.80
18894;DHT22;9579;49.488;8.226;2023-03-01T09:53:15;11.20;70.20
18894;DHT22;9579;49.488;8.226;2023-03-01T09:56:05;11.40;70.00
18894;DHT22;9579;49.488;8.226;2023-03-01T09:59:06;11.60;70.40
18894;DHT22;9579;49.488;8.226;2023-03-01T10:02:00;11.80;69.80
18894;DHT22;9579;49.488;8.226;2023-03-01T10:04:55;12.10;69.50
18894;DHT22;9579;49.488;8.226;2023-03-01T10:07:51;12.10;68.50
18894;DHT22;9579;49.488;8.226;2023-03-01T10:10:44;12.30;68.70
18894;DHT22;9579;49.488;8.226;2023-03-01T10:13:41;12.50;68.00
18894;DHT22;9579;49.488;8.226;2023-03-01T10:16:41;12.50;68.40
18894;DHT22;9579;49.488;8.226;2023-03-01T10:19:32;12.70;66.90
18894;DHT22;9579;49.488;8.226;2023-03-01T10:22:26;12.60;66.90
18894;DHT22;9579;49.488;8.226;2023-03-01T10:25:15;12.70;67.60
18894;DHT22;9579;49.488;8.226;2023-03-01T10:28:08;12.80;66.90
18894;DHT22;9579;49.488;8.226;2023-03-01T10:30:57;12.80;67.20
18894;DHT22;9579;49.488;8.226;2023-03-01T10:33:45;12.50;65.90
18894;DHT22;9579;49.488;8.226;2023-03-01T10:36:33;12.50;67.20
18894;DHT22;9579;49.488;8.226;2023-03-01T10:39:24;12.50;66.70
18894;DHT22;9579;49.488;8.226;2023-03-01T10:42:21;12.70;67.00
18894;DHT22;9579;49.488;8.226;2023-03-01T10:45:17;12.90;67.70
18894;DHT22;9579;49.488;8.226;2023-03-01T10:48:13;13.20;66.60
18894;DHT22;9579;49.488;8.226;2023-03-01T10:51:07;13.10;65.50
18894;DHT22;9579;49.488;8.226;2023-03-01T10:53:54;13.20;64.90
18894;DHT22;9579;49.488;8.226;2023-03-01T10:56:51;13.20;65.90
18894;DHT22;9579;49.488;8.226;2023-03-01T10:59:39;13.30;65.70
18894;DHT22;9579;49.488;8.226;2023-03-01T11:02:29;13.30;65.80
18894;DHT22;9579;49.488;8.226;2023-03-01T11:05:22;13.40;65.50
18894;DHT22;9579;49.488;8.226;2023-03-01T11:08:12;13.20;65.00
18894;DHT22;9579;49.488;8.226;2023-03-01T11:14:17;12.90;63.00
18894;DHT22;9579;49.488;8.226;2023-03-01T11:17:15;12.80;64.10
18894;DHT22;9579;49.488;8.226;2023-03-01T11:20:15;13.00;65.60
18894;DHT22;9579;49.488;8.226;2023-03-01T11:23:09;13.30;64.80
18894;DHT22;9579;49.488;8.226;2023-03-01T11:25:59;13.20;64.00
18894;DHT22;9579;49.488;8.226;2023-03-01T11:28:53;13.50;64.00
18894;DHT22;9579;49.488;8.226;2023-03-01T11:32:08;13.70;64.70
18894;DHT22;9579;49.488;8.226;2023-03-01T11:38:38;13.90;62.10
18894;DHT22;9579;49.488;8.226;2023-03-01T11:42:06;14.00;63.40
18894;DHT22;9579;49.488;8.226;2023-03-01T11:45:17;14.30;62.70
18894;DHT22;9579;49.488;8.226;2023-03-01T11:52:02;14.60;61.80
18894;DHT22;9579;49.488;8.226;2023-03-01T11:55:27;14.60;61.50
18894;DHT22;9579;49.488;8.226;2023-03-01T12:02:36;15.10;61.90
18894;DHT22;9579;49.488;8.226;2023-03-01T12:05:51;15.30;60.50
18894;DHT22;9579;49.488;8.226;2023-03-01T12:16:41;15.30;59.90
18894;DHT22;9579;49.488;8.226;2023-03-01T12:19:50;15.20;60.20
18894;DHT22;9579;49.488;8.226;2023-03-01T12:22:48;15.20;59.60
18894;DHT22;9579;49.488;8.226;2023-03-01T12:25:39;15.20;59.60
18894;DHT22;9579;49.488;8.226;2023-03-01T12:28:51;15.20;59.80
18894;DHT22;9579;49.488;8.226;2023-03-01T12:32:06;15.20;60.20
18894;DHT22;9579;49.488;8.226;2023-03-01T12:38:41;15.10;59.40
18894;DHT22;9579;49.488;8.226;2023-03-01T12:41:47;15.50;60.40
18894;DHT22;9579;49.488;8.226;2023-03-01T12:44:57;16.00;59.60
18894;DHT22;9579;49.488;8.226;2023-03-01T12:47:59;16.50;59.40
18894;DHT22;9579;49.488;8.226;2023-03-01T12:50:52;16.80;58.20
18894;DHT22;9579;49.488;8.226;2023-03-01T12:53:41;16.90;57.70
18894;DHT22;9579;49.488;8.226;2023-03-01T12:56:32;17.20;57.30
18894;DHT22;9579;49.488;8.226;2023-03-01T12:59:29;17.00;56.50
18894;DHT22;9579;49.488;8.226;2023-03-01T13:02:30;16.80;56.60
18894;DHT22;9579;49.488;8.226;2023-03-01T13:05:33;17.10;56.80
18894;DHT22;9579;49.488;8.226;2023-03-01T13:08:27;17.60;56.40
18894;DHT22;9579;49.488;8.226;2023-03-01T13:11:21;17.70;55.40
18894;DHT22;9579;49.488;8.226;2023-03-01T13:14:37;17.30;56.20
18894;DHT22;9579;49.488;8.226;2023-03-01T13:17:39;17.40;55.50
18894;DHT22;9579;49.488;8.226;2023-03-01T13:20:34;17.10;55.70
18894;DHT22;9579;49.488;8.226;2023-03-01T13:23:36;17.40;56.40
18894;DHT22;9579;49.488;8.226;2023-03-01T13:26:24;17.80;56.40
18894;DHT22;9579;49.488;8.226;2023-03-01T13:29:25;18.10;55.50
18894;DHT22;9579;49.488;8.226;2023-03-01T13:32:21;18.30;54.60
18894;DHT22;9579;49.488;8.226;2023-03-01T13:35:43;18.80;55.60
18894;DHT22;9579;49.488;8.226;2023-03-01T13:38:39;19.00;53.80
18894;DHT22;9579;49.488;8.226;2023-03-01T13:41:51;19.00;53.90
18894;DHT22;9579;49.488;8.226;2023-03-01T13:44:38;19.00;52.40
18894;DHT22;9579;49.488;8.226;2023-03-01T13:47:28;19.10;52.70
18894;DHT22;9579;49.488;8.226;2023-03-01T13:50:19;19.40;52.80
18894;DHT22;9579;49.488;8.226;2023-03-01T13:53:11;19.50;51.90
18894;DHT22;9579;49.488;8.226;2023-03-01T13:56:03;19.90;52.70
18894;DHT22;9579;49.488;8.226;2023-03-01T13:58:57;20.30;52.10
18894;DHT22;9579;49.488;8.226;2023-03-01T14:01:52;20.50;51.80
18894;DHT22;9579;49.488;8.226;2023-03-01T14:04:39;20.80;51.40
18894;DHT22;9579;49.488;8.226;2023-03-01T14:07:27;20.90;50.00
18894;DHT22;9579;49.488;8.226;2023-03-01T14:10:18;21.00;50.10
18894;DHT22;9579;49.488;8.226;2023-03-01T14:13:18;21.40;50.60
18894;DHT22;9579;49.488;8.226;2023-03-01T14:16:22;21.60;50.00
18894;DHT22;9579;49.488;8.226;2023-03-01T14:19:18;21.90;49.10
18894;DHT22;9579;49.488;8.226;2023-03-01T14:22:14;22.20;47.80
18894;DHT22;9579;49.488;8.226;2023-03-01T14:25:06;21.70;48.20
18894;DHT22;9579;49.488;8.226;2023-03-01T14:28:16;20.90;47.30
18894;DHT22;9579;49.488;8.226;2023-03-01T14:31:30;20.70;48.50
18894;DHT22;9579;49.488;8.226;2023-03-01T14:34:20;20.40;47.80
18894;DHT22;9579;49.488;8.226;2023-03-01T14:37:11;20.30;48.40
18894;DHT22;9579;49.488;8.226;2023-03-01T14:40:21;19.10;48.60
18894;DHT22;9579;49.488;8.226;2023-03-01T14:43:12;18.90;50.40
18894;DHT22;9579;49.488;8.226;2023-03-01T14:46:04;19.30;50.60
18894;DHT22;9579;49.488;8.226;2023-03-01T14:49:24;20.00;50.30
18894;DHT22;9579;49.488;8.226;2023-03-01T14:56:03;20.60;48.80
18894;DHT22;9579;49.488;8.226;2023-03-01T15:03:26;18.50;49.80
18894;DHT22;9579;49.488;8.226;2023-03-01T15:07:03;17.10;51.20
18894;DHT22;9579;49.488;8.226;2023-03-01T15:13:29;15.90;53.90
18894;DHT22;9579;49.488;8.226;2023-03-01T15:16:24;15.70;53.40
18894;DHT22;9579;49.488;8.226;2023-03-01T15:19:18;15.50;54.10
18894;DHT22;9579;49.488;8.226;2023-03-01T15:22:14;15.20;54.40
18894;DHT22;9579;49.488;8.226;2023-03-01T15:25:01;15.10;54.60
18894;DHT22;9579;49.488;8.226;2023-03-01T15:27:51;14.80;54.30
18894;DHT22;9579;49.488;8.226;2023-03-01T15:30:38;14.50;54.90
18894;DHT22;9579;49.488;8.226;2023-03-01T15:33:31;14.30;56.00
18894;DHT22;9579;49.488;8.226;2023-03-01T15:36:39;14.10;55.80
18894;DHT22;9579;49.488;8.226;2023-03-01T15:39:35;14.00;55.70
18894;DHT22;9579;49.488;8.226;2023-03-01T15:42:39;13.70;55.70
18894;DHT22;9579;49.488;8.226;2023-03-01T15:45:28;13.50;56.60
18894;DHT22;9579;49.488;8.226;2023-03-01T15:48:18;13.30;56.90
18894;DHT22;9579;49.488;8.226;2023-03-01T15:51:12;13.10;57.10
18894;DHT22;9579;49.488;8.226;2023-03-01T15:54:05;13.20;57.50
18894;DHT22;9579;49.488;8.226;2023-03-01T15:56:53;12.90;57.50
18894;DHT22;9579;49.488;8.226;2023-03-01T15:59:41;12.70;57.70
18894;DHT22;9579;49.488;8.226;2023-03-01T16:02:30;12.60;58.40
18894;DHT22;9579;49.488;8.226;2023-03-01T16:36:33;11.80;62.90
18894;DHT22;9579;49.488;8.226;2023-03-01T16:49:51;11.40;63.30
18894;DHT22;9579;49.488;8.226;2023-03-01T17:10:24;10.70;65.60
18894;DHT22;9579;49.488;8.226;2023-03-01T17:13:19;10.30;65.50
18894;DHT22;9579;49.488;8.226;2023-03-01T17:16:34;10.70;65.50
18894;DHT22;9579;49.488;8.226;2023-03-01T18:08:52;9.00;72.50
18894;DHT22;9579;49.488;8.226;2023-03-01T18:14:29;8.80;73.70
18894;DHT22;9579;49.488;8.226;2023-03-01T18:17:36;9.40;73.50
18894;DHT22;9579;49.488;8.226;2023-03-01T18:20:27;8.60;73.50
18894;DHT22;9579;49.488;8.226;2023-03-01T18:23:18;8.90;73.60
18894;DHT22;9579;49.488;8.226;2023-03-01T18:28:38;8.40;73.80
18894;DHT22;9579;49.488;8.226;2023-03-01T18:31:33;8.90;74.60
18894;DHT22;9579;49.488;8.226;2023-03-01T18:34:35;9.20;75.60
18894;DHT22;9579;49.488;8.226;2023-03-01T18:37:31;8.80;75.00
18894;DHT22;9579;49.488;8.226;2023-03-01T18:40:35;7.50;73.30
18894;DHT22;9579;49.488;8.226;2023-03-01T18:43:44;8.50;75.20
18894;DHT22;9579;49.488;8.226;2023-03-01T18:46:50;8.60;75.50
18894;DHT22;9579;49.488;8.226;2023-03-01T18:49:49;7.70;74.70
18894;DHT22;9579;49.488;8.226;2023-03-01T18:53:17;7.90;75.10
18894;DHT22;9579;49.488;8.226;2023-03-01T18:56:17;7.90;75.40
18894;DHT22;9579;49.488;8.226;2023-03-01T18:58:56;7.80;75.30
18894;DHT22;9579;49.488;8.226;2023-03-01T19:01:44;7.90;75.80
18894;DHT22;9579;49.488;8.226;2023-03-01T19:07:07;7.70;76.30
18894;DHT22;9579;49.488;8.226;2023-03-01T19:10:04;7.60;76.10
18894;DHT22;9579;49.488;8.226;2023-03-01T19:13:18;7.70;76.10
18894;DHT22;9579;49.488;8.226;2023-03-01T19:16:25;7.60;76.20
18894;DHT22;9579;49.488;8.226;2023-03-01T19:21:49;7.60;77.00
18894;DHT22;9579;49.488;8.226;2023-03-01T19:24:38;7.40;77.30
18894;DHT22;9579;49.488;8.226;2023-03-01T19:27:29;7.00;77.00
18894;DHT22;9579;49.488;8.226;2023-03-01T19:30:26;7.90;78.30
18894;DHT22;9579;49.488;8.226;2023-03-01T19:33:25;8.20;79.00
18894;DHT22;9579;49.488;8.226;2023-03-01T19:38:51;7.30;78.40
18894;DHT22;9579;49.488;8.226;2023-03-01T19:41:40;6.70;77.80
18894;DHT22;9579;49.488;8.226;2023-03-01T19:44:41;7.40;79.10
18894;DHT22;9579;49.488;8.226;2023-03-01T19:47:39;6.90;78.60
18894;DHT22;9579;49.488;8.226;2023-03-01T19:50:29;6.40;78.40
18894;DHT22;9579;49.488;8.226;2023-03-01T19:53:19;7.20;79.60
18894;DHT22;9579;49.488;8.226;2023-03-01T19:56:10;6.90;79.60
18894;DHT22;9579;49.488;8.226;2023-03-01T19:59:17;7.70;80.30
18894;DHT22;9579;49.488;8.226;2023-03-01T20:02:11;7.00;79.80
18894;DHT22;9579;49.488;8.226;2023-03-01T20:04:59;8.00;81.50
18894;DHT22;9579;49.488;8.226;2023-03-01T20:07:50;7.40;80.40
18894;DHT22;9579;49.488;8.226;2023-03-01T20:10:38;8.30;81.60
18894;DHT22;9579;49.488;8.226;2023-03-01T20:13:28;7.80;81.00
18894;DHT22;9579;49.488;8.226;2023-03-01T20:18:52;6.90;80.30
18894;DHT22;9579;49.488;8.226;2023-03-01T20:22:01;6.80;80.00
18894;DHT22;9579;49.488;8.226;2023-03-01T20:24:52;6.80;80.50
18894;DHT22;9579;49.488;8.226;2023-03-01T20:27:50;5.70;79.30
18894;DHT22;9579;49.488;8.226;2023-03-01T20:30:50;6.70;80.60
18894;DHT22;9579;49.488;8.226;2023-03-01T20:33:56;6.70;80.50
18894;DHT22;9579;49.488;8.226;2023-03-01T20:37:10;6.90;80.40
18894;DHT22;9579;49.488;8.226;2023-03-01T20:44:02;6.50;80.80
18894;DHT22;9579;49.488;8.226;2023-03-01T20:46:59;5.80;79.90
18894;DHT22;9579;49.488;8.226;2023-03-01T20:50:17;6.40;80.70
18894;DHT22;9579;49.488;8.226;2023-03-01T20:53:24;6.30;80.60
18894;DHT22;9579;49.488;8.226;2023-03-01T20:59:57;6.30;81.00
18894;DHT22;9579;49.488;8.226;2023-03-01T21:03:28;5.70;80.70
18894;DHT22;9579;49.488;8.226;2023-03-01T21:06:48;5.20;80.20
18894;DHT22;9579;49.488;8.226;2023-03-01T21:09:45;6.30;81.00
18894;DHT22;9579;49.488;8.226;2023-03-01T21:12:35;6.20;80.90
18894;DHT22;9579;49.488;8.226;2023-03-01T21:15:56;5.80;80.40
18894;DHT22;9579;49.488;8.226;2023-03-01T21:18:59;6.50;81.60
18894;DHT22;9579;49.488;8.226;2023-03-01T21:21:51;5.70;81.10
18894;DHT22;9579;49.488;8.226;2023-03-01T21:27:21;6.20;81.80
18894;DHT22;9579;49.488;8.226;2023-03-01T21:32:51;6.10;81.70
18894;DHT22;9579;49.488;8.226;2023-03-01T21:35:44;6.20;81.20
18894;DHT22;9579;49.488;8.226;2023-03-01T21:38:46;4.50;80.00